Time;durP1;ratioP1;P1;durP2;ratioP2;P2;SDS_P1;SDS_P2;PMS_P1;PMS_P2;Temp;Humidity;BMP_temperature;BMP_pressure;BME280_temperature;BME280_humidity;BME280_pressure;Samples;Min_cycle;Max_cycle;Signal;HPM_P1;HPM_P2
2021/06/15 00:00:11;;;;;;;5.47;4.67;;;20.10;99.90;;;;;;5046250;28;20470;-86
2021/06/15 00:02:39;;;;;;;9.03;5.60;;;20.20;99.90;;;;;;5050345;28;20465;-86
2021/06/15 00:05:09;;;;;;;7.73;5.47;;;20.10;99.90;;;;;;5046421;28;20876;-88
2021/06/15 00:07:35;;;;;;;7.30;5.03;;;20.10;99.90;;;;;;5044865;28;20455;-87
2021/06/15 00:10:04;;;;;;;10.10;5.53;;;21.80;99.90;;;;;;5044859;28;20485;-88
2021/06/15 00:12:31;;;;;;;5.00;4.60;;;;;;;;;;5045208;28;20537;-86
2021/06/15 00:14:58;;;;;;;8.60;6.33;;;;;;;;;;5045104;28;20513;-87
2021/06/15 00:17:24;;;;;;;5.83;5.20;;;20.10;99.90;;;;;;5044491;28;20500;-86
2021/06/15 00:19:53;;;;;;;7.13;4.83;;;20.00;99.90;;;;;;5044687;28;20454;-87
2021/06/15 00:22:19;;;;;;;5.17;4.53;;;19.80;99.90;;;;;;5044089;28;20894;-87
2021/06/15 00:24:46;;;;;;;10.77;5.57;;;20.70;99.90;;;;;;5044725;28;20465;-87
2021/06/15 00:27:13;;;;;;;8.37;5.27;;;19.90;99.90;;;;;;5044628;28;20496;-87
2021/06/15 00:29:40;;;;;;;7.00;4.67;;;19.90;99.90;;;;;;5044285;28;20451;-87
2021/06/15 00:32:07;;;;;;;7.20;4.97;;;20.00;99.90;;;;;;5044049;28;20443;-88
2021/06/15 00:34:33;;;;;;;5.13;4.63;;;19.90;99.90;;;;;;5044687;28;20843;-86
2021/06/15 00:37:01;;;;;;;5.63;5.13;;;19.90;99.90;;;;;;5044594;28;20467;-87
2021/06/15 00:39:28;;;;;;;7.37;4.20;;;19.80;99.90;;;;;;5044030;28;20805;-86
2021/06/15 00:41:55;;;;;;;5.63;5.00;;;19.80;99.90;;;;;;5044487;28;20474;-87
2021/06/15 00:44:21;;;;;;;7.80;4.83;;;19.90;99.90;;;;;;5045284;28;20873;-86
2021/06/15 00:46:50;;;;;;;5.63;5.10;;;19.80;99.90;;;;;;5044739;28;20495;-87
2021/06/15 00:49:24;;;;;;;9.63;5.87;;;19.80;99.90;;;;;;5045045;28;20844;-87
2021/06/15 00:51:51;;;;;;;5.57;5.07;;;19.80;99.90;;;;;;5055255;28;20442;-85
2021/06/15 00:54:19;;;;;;;5.50;5.00;;;19.70;99.90;;;;;;5060263;28;20435;-86
2021/06/15 00:56:45;;;;;;;5.63;4.67;;;19.70;99.90;;;;;;5060295;28;20481;-87
2021/06/15 00:59:12;;;;;;;5.47;4.97;;;19.70;99.90;;;;;;5060386;28;20427;-86
2021/06/15 01:01:39;;;;;;;7.33;5.30;;;19.60;99.90;;;;;;5060045;28;20528;-87
2021/06/15 01:04:06;;;;;;;6.07;5.40;;;19.60;99.90;;;;;;5042545;28;20819;-87
2021/06/15 01:06:42;;;;;;;5.93;4.90;;;19.70;99.90;;;;;;5039502;28;20481;-86
2021/06/15 01:09:16;;;;;;;5.30;4.80;;;19.60;99.90;;;;;;5042777;28;20434;-87
2021/06/15 01:11:56;;;;;;;7.73;5.57;;;19.60;99.90;;;;;;5043070;28;20461;-87
2021/06/15 01:14:34;;;;;;;9.03;5.67;;;19.50;99.90;;;;;;5044106;28;20580;-86
2021/06/15 01:17:09;;;;;;;7.20;5.13;;;19.50;99.90;;;;;;5043764;28;20465;-87
2021/06/15 01:19:47;;;;;;;8.80;5.03;;;19.50;99.90;;;;;;5045577;28;20772;-86
2021/06/15 01:22:29;;;;;;;7.07;5.80;;;19.40;99.90;;;;;;5046479;28;20474;-86
2021/06/15 01:25:04;;;;;;;6.60;6.00;;;19.40;99.90;;;;;;5047287;28;20427;-86
2021/06/15 01:27:43;;;;;;;7.67;6.77;;;19.30;99.90;;;;;;5047424;28;20460;-87
2021/06/15 01:30:13;;;;;;;9.20;6.30;;;19.20;99.90;;;;;;5050481;28;20418;-87
2021/06/15 01:32:46;;;;;;;7.30;6.60;;;19.20;99.90;;;;;;5058424;28;20430;-86
2021/06/15 01:35:14;;;;;;;9.13;6.10;;;19.10;99.90;;;;;;5059777;28;20485;-86
2021/06/15 01:37:44;;;;;;;8.07;6.27;;;19.10;99.90;;;;;;5058695;28;20435;-85
2021/06/15 01:40:15;;;;;;;7.53;6.23;;;19.10;99.90;;;;;;5059465;28;20446;-87
2021/06/15 01:42:46;;;;;;;7.50;6.70;;;19.00;99.90;;;;;;5058333;28;20490;-86
2021/06/15 01:45:17;;;;;;;6.47;5.80;;;19.00;99.90;;;;;;5057610;28;20471;-86
2021/06/15 01:47:50;;;;;;;7.30;6.60;;;19.00;99.90;;;;;;5058705;28;20445;-86
2021/06/15 01:50:20;;;;;;;6.63;6.03;;;18.90;99.90;;;;;;5058313;28;20455;-85
2021/06/15 01:52:48;;;;;;;6.50;5.90;;;18.80;99.90;;;;;;5058806;28;20485;-87
2021/06/15 01:55:18;;;;;;;9.30;6.20;;;18.80;99.90;;;;;;5059080;28;20470;-85
2021/06/15 01:57:46;;;;;;;6.77;5.73;;;18.80;99.90;;;;;;5059058;28;20450;-84
2021/06/15 02:00:13;;;;;;;10.10;6.17;;;18.80;99.90;;;;;;5059063;28;20461;-86
2021/06/15 02:02:42;;;;;;;7.97;5.83;;;18.70;99.90;;;;;;5058828;28;20473;-85
2021/06/15 02:05:12;;;;;;;6.63;6.03;;;18.80;99.90;;;;;;5058482;28;20454;-86
2021/06/15 02:07:43;;;;;;;7.67;6.50;;;18.70;99.90;;;;;;5058955;28;20564;-86
2021/06/15 02:10:12;;;;;;;8.03;6.27;;;18.70;99.90;;;;;;5058887;28;20429;-87
2021/06/15 02:12:44;;;;;;;11.83;6.60;;;18.70;99.90;;;;;;5058662;28;20488;-85
2021/06/15 02:15:15;;;;;;;7.77;5.70;;;18.70;99.90;;;;;;5059442;28;20487;-84
2021/06/15 02:17:45;;;;;;;7.43;6.40;;;18.60;99.90;;;;;;5059048;28;20418;-86
2021/06/15 02:20:14;;;;;;;10.57;7.10;;;18.60;99.90;;;;;;5059493;28;20425;-86
2021/06/15 02:22:44;;;;;;;10.60;6.33;;;18.60;99.90;;;;;;5059046;28;20469;-87
2021/06/15 02:25:11;;;;;;;11.20;7.20;;;18.60;99.90;;;;;;5057987;28;20465;-87
2021/06/15 02:27:38;;;;;;;8.87;6.60;;;18.60;99.90;;;;;;5051706;28;20446;-86
2021/06/15 02:30:06;;;;;;;7.20;6.43;;;18.60;99.90;;;;;;5054185;28;20441;-87
2021/06/15 02:32:36;;;;;;;9.70;7.10;;;18.50;99.90;;;;;;5051829;28;20945;-87
2021/06/15 02:35:07;;;;;;;7.07;6.40;;;18.50;99.90;;;;;;5049318;28;20460;-87
2021/06/15 02:37:37;;;;;;;9.80;6.70;;;18.50;99.90;;;;;;5047797;28;20511;-87
2021/06/15 02:40:07;;;;;;;7.77;6.97;;;18.50;99.90;;;;;;5049346;28;20425;-86
2021/06/15 02:42:41;;;;;;;8.40;7.53;;;18.40;99.90;;;;;;5048223;28;20499;-87
2021/06/15 02:45:10;;;;;;;8.80;6.67;;;18.40;99.90;;;;;;5048153;28;20469;-85
2021/06/15 02:47:38;;;;;;;13.00;8.80;;;18.40;99.90;;;;;;5047721;28;20455;-86
2021/06/15 02:50:07;;;;;;;7.13;6.40;;;18.40;99.90;;;;;;5047319;28;20556;-86
2021/06/15 02:52:39;;;;;;;8.47;7.53;;;18.40;99.90;;;;;;5046020;28;20452;-87
2021/06/15 02:55:09;;;;;;;10.27;7.23;;;18.40;99.90;;;;;;5045744;28;20476;-87
2021/06/15 02:57:35;;;;;;;8.40;6.30;;;18.40;99.90;;;;;;5044444;28;20469;-87
2021/06/15 03:00:06;;;;;;;7.13;6.40;;;18.40;99.90;;;;;;5046567;28;20461;-86
2021/06/15 03:02:33;;;;;;;8.13;6.13;;;18.30;99.90;;;;;;5046684;28;20481;-88
2021/06/15 03:05:01;;;;;;;8.10;6.67;;;18.30;99.90;;;;;;5046017;28;20522;-86
2021/06/15 03:07:32;;;;;;;8.47;7.67;;;18.30;99.90;;;;;;5045218;28;20480;-85
2021/06/15 03:10:02;;;;;;;7.70;6.90;;;18.30;99.90;;;;;;5044580;28;20437;-86
2021/06/15 03:12:34;;;;;;;9.07;8.20;;;18.30;99.90;;;;;;5046289;28;20496;-85
2021/06/15 03:15:05;;;;;;;8.03;7.13;;;18.20;99.90;;;;;;5044676;28;20474;-85
2021/06/15 03:17:34;;;;;;;7.70;7.00;;;18.20;99.90;;;;;;5043746;28;20444;-87
2021/06/15 03:20:08;;;;;;;18.83;14.63;;;18.00;99.90;;;;;;5043551;28;20599;-87
2021/06/15 03:22:45;;;;;;;9.00;7.83;;;18.10;99.90;;;;;;5042664;28;20464;-85
2021/06/15 03:25:13;;;;;;;11.03;8.57;;;18.10;99.90;;;;;;5043356;28;20470;-87
2021/06/15 03:27:45;;;;;;;10.85;7.90;;;18.10;99.90;;;;;;5042434;28;20456;-87
2021/06/15 03:30:13;;;;;;;9.57;7.07;;;18.20;99.90;;;;;;5046057;28;20212;-85
2021/06/15 03:32:44;;;;;;;9.80;7.00;;;18.20;99.90;;;;;;5054324;28;20463;-87
2021/06/15 03:35:14;;;;;;;8.50;7.57;;;18.20;99.90;;;;;;5058040;28;20571;-86
2021/06/15 03:37:45;;;;;;;8.37;6.87;;;18.10;99.90;;;;;;5061318;28;20444;-87
2021/06/15 03:40:12;;;;;;;9.80;7.00;;;18.10;99.90;;;;;;5055154;28;20497;-85
2021/06/15 03:42:40;;;;;;;8.00;7.20;;;18.10;99.90;;;;;;5061076;28;20477;-86
2021/06/15 03:45:09;;;;;;;9.40;7.23;;;18.10;99.90;;;;;;5059231;28;20472;-86
2021/06/15 03:47:38;;;;;;;10.30;8.67;;;18.10;99.90;;;;;;5058295;28;20454;-86
2021/06/15 03:50:08;;;;;;;7.83;7.13;;;18.10;99.90;;;;;;5059143;28;20424;-87
2021/06/15 03:52:40;;;;;;;11.83;7.87;;;18.20;99.90;;;;;;5057059;28;20442;-87
2021/06/15 03:55:10;;;;;;;9.13;8.23;;;18.10;99.90;;;;;;5050960;28;20468;-89
2021/06/15 03:57:41;;;;;;;8.23;7.37;;;18.20;99.90;;;;;;5049019;28;20773;-86
2021/06/15 04:00:09;;;;;;;12.43;7.23;;;18.20;99.90;;;;;;5045128;28;20550;-87
2021/06/15 04:02:40;;;;;;;10.13;7.63;;;18.20;99.90;;;;;;5045664;28;20524;-87
2021/06/15 04:05:09;;;;;;;10.53;7.50;;;18.20;99.90;;;;;;5043445;28;20832;-84
2021/06/15 04:07:38;;;;;;;11.73;7.43;;;18.20;99.90;;;;;;5043877;28;20453;-86
2021/06/15 04:10:07;;;;;;;10.10;8.40;;;18.20;99.90;;;;;;5044684;28;20472;-85
2021/06/15 04:12:34;;;;;;;8.65;7.28;;;18.20;99.90;;;;;;5044236;28;20437;-86
2021/06/15 04:15:02;;;;;;;8.27;6.80;;;18.20;99.90;;;;;;5044518;28;20226;-86
2021/06/15 04:17:30;;;;;;;9.10;7.67;;;18.20;99.90;;;;;;5043849;28;20504;-87
2021/06/15 04:19:58;;;;;;;9.33;8.20;;;18.20;99.90;;;;;;5044596;28;20451;-86
2021/06/15 04:22:29;;;;;;;7.70;6.90;;;18.30;99.90;;;;;;5042891;28;20470;-86
2021/06/15 04:24:59;;;;;;;9.07;6.80;;;18.30;99.90;;;;;;5042228;28;20539;-85
2021/06/15 04:27:26;;;;;;;11.10;7.20;;;18.40;99.90;;;;;;5044964;28;20455;-85
2021/06/15 04:29:55;;;;;;;9.87;7.20;;;18.50;99.90;;;;;;5045703;28;20865;-85
2021/06/15 04:32:23;;;;;;;11.47;7.70;;;18.50;99.90;;;;;;5043724;28;20958;-87
2021/06/15 04:34:56;;;;;;;9.70;7.73;;;18.50;99.90;;;;;;5044980;28;20451;-87
2021/06/15 04:37:26;;;;;;;16.10;9.03;;;18.50;99.90;;;;;;5046643;28;20543;-87
2021/06/15 04:39:57;;;;;;;8.47;7.50;;;18.50;99.90;;;;;;5055529;28;20456;-85
2021/06/15 04:42:37;;;;;;;8.23;7.43;;;18.40;99.90;;;;;;5060494;28;20497;-86
2021/06/15 04:45:05;;;;;;;9.90;7.63;;;18.50;99.90;;;;;;5060509;28;20477;-85
2021/06/15 04:47:37;;;;;;;10.50;8.83;;;18.50;99.90;;;;;;5050768;28;20443;-88
2021/06/15 04:50:09;;;;;;;10.50;7.80;;;18.60;99.90;;;;;;5052203;28;20433;-87
2021/06/15 04:52:38;;;;;;;10.80;7.90;;;18.70;99.90;;;;;;5057438;28;20414;-86
2021/06/15 04:55:06;;;;;;;10.03;7.30;;;18.70;99.90;;;;;;5056024;28;20477;-87
2021/06/15 04:57:39;;;;;;;8.07;7.27;;;18.70;99.90;;;;;;5048819;28;20458;-87
2021/06/15 05:00:07;;;;;;;8.90;7.43;;;18.80;99.90;;;;;;5047508;28;20451;-87
2021/06/15 05:02:38;;;;;;;10.53;7.07;;;18.80;99.90;;;;;;5047202;28;20490;-87
2021/06/15 05:05:06;;;;;;;9.03;6.50;;;18.90;99.90;;;;;;5046241;28;20973;-87
2021/06/15 05:07:33;;;;;;;15.93;7.93;;;19.00;99.90;;;;;;5047398;28;20457;-86
2021/06/15 05:10:01;;;;;;;16.57;8.77;;;19.00;99.90;;;;;;5048079;28;20480;-86
2021/06/15 05:12:35;;;;;;;13.80;11.70;;;19.10;99.90;;;;;;5047162;28;20475;-86
2021/06/15 05:15:04;;;;;;;11.17;9.73;;;19.10;99.90;;;;;;5045374;28;20479;-86
2021/06/15 05:17:31;;;;;;;8.80;7.60;;;19.20;99.90;;;;;;5049197;28;20450;-86
2021/06/15 05:19:58;;;;;;;9.30;7.33;;;19.20;99.90;;;;;;5051008;28;20447;-85
2021/06/15 05:22:29;;;;;;;11.33;8.10;;;19.20;99.90;;;;;;5050990;28;20489;-86
2021/06/15 05:25:12;;;;;;;7.53;6.83;;;19.40;99.90;;;;;;5048654;28;20431;-86
2021/06/15 05:27:38;;;;;;;11.67;8.77;;;19.30;99.90;;;;;;5044126;28;20495;-86
2021/06/15 05:30:10;;;;;;;7.30;5.93;;;19.60;99.90;;;;;;5043112;28;20870;-87
2021/06/15 05:32:36;;;;;;;8.57;7.30;;;19.60;99.90;;;;;;5045115;28;20446;-87
2021/06/15 05:35:04;;;;;;;9.87;7.17;;;19.70;99.90;;;;;;5042724;28;20871;-87
2021/06/15 05:37:31;;;;;;;7.47;6.87;;;19.70;99.90;;;;;;5042511;28;20956;-86
2021/06/15 05:39:57;;;;;;;12.83;8.13;;;19.60;99.90;;;;;;5041923;28;20945;-87
2021/06/15 05:42:24;;;;;;;10.63;7.53;;;19.60;99.90;;;;;;5043081;28;20816;-87
2021/06/15 05:44:51;;;;;;;9.80;7.90;;;19.80;99.90;;;;;;5041854;28;20458;-87
2021/06/15 05:47:19;;;;;;;11.17;8.03;;;19.80;99.90;;;;;;5042485;28;20798;-85
2021/06/15 05:49:46;;;;;;;8.90;7.83;;;19.80;99.90;;;;;;5044493;28;20447;-87
2021/06/15 05:52:13;;;;;;;9.83;7.10;;;19.90;99.90;;;;;;5043539;28;20447;-85
2021/06/15 05:54:41;;;;;;;9.53;7.30;;;20.00;99.90;;;;;;5042630;28;20449;-86
2021/06/15 05:57:08;;;;;;;11.40;7.73;;;20.10;99.90;;;;;;5041358;28;20512;-87
2021/06/15 05:59:35;;;;;;;11.13;8.20;;;20.20;99.90;;;;;;5043271;28;20472;-87
2021/06/15 06:02:02;;;;;;;11.40;8.80;;;20.20;99.90;;;;;;5044971;28;20446;-87
2021/06/15 06:04:33;;;;;;;11.50;8.60;;;20.40;99.90;;;;;;5044063;28;20482;-86
2021/06/15 06:09:44;;;;;;;13.33;7.23;;;20.50;99.90;;;;;;5043011;28;20453;-87
2021/06/15 06:12:11;;;;;;;12.93;6.80;;;20.60;99.90;;;;;;5042483;28;20451;-87
2021/06/15 06:14:38;;;;;;;7.50;6.73;;;20.70;99.90;;;;;;5042674;28;20443;-87
2021/06/15 06:17:08;;;;;;;8.30;6.63;;;20.70;99.90;;;;;;5041406;28;20851;-86
2021/06/15 06:19:37;;;;;;;14.00;10.17;;;20.80;99.90;;;;;;5043036;28;20419;-87
2021/06/15 06:22:04;;;;;;;9.30;7.33;;;20.90;99.90;;;;;;5041728;28;20450;-86
2021/06/15 06:24:31;;;;;;;14.20;7.10;;;20.80;99.90;;;;;;5042177;28;20521;-86
2021/06/15 06:26:58;;;;;;;8.03;7.10;;;20.80;99.90;;;;;;5041899;28;20481;-87
2021/06/15 06:29:25;;;;;;;7.37;6.33;;;20.80;99.90;;;;;;5044596;28;20905;-87
2021/06/15 06:31:52;;;;;;;11.53;7.80;;;20.80;99.90;;;;;;5044988;28;20459;-87
2021/06/15 06:34:18;;;;;;;7.47;6.73;;;20.70;99.90;;;;;;5044559;28;20442;-87
2021/06/15 06:36:46;;;;;;;8.17;6.73;;;20.60;99.90;;;;;;5042538;28;20470;-87
2021/06/15 06:39:13;;;;;;;12.93;6.90;;;20.70;99.90;;;;;;5042169;28;20454;-87
2021/06/15 06:41:39;;;;;;;12.50;7.90;;;20.80;99.90;;;;;;5049203;28;20451;-86
2021/06/15 06:44:07;;;;;;;13.23;9.20;;;20.80;99.90;;;;;;5040654;28;20536;-86
2021/06/15 06:46:34;;;;;;;12.57;7.10;;;20.80;99.90;;;;;;5044014;28;20462;-86
2021/06/15 06:49:01;;;;;;;7.53;6.77;;;20.90;99.90;;;;;;5043343;28;20446;-86
2021/06/15 06:51:27;;;;;;;11.37;6.60;;;20.90;99.90;;;;;;5042699;28;20443;-87
2021/06/15 06:53:56;;;;;;;7.83;6.50;;;20.80;99.90;;;;;;5053806;28;20423;-87
2021/06/15 06:56:23;;;;;;;8.37;5.83;;;20.80;99.90;;;;;;5047445;28;20463;-86
2021/06/15 06:58:49;;;;;;;7.07;6.43;;;20.90;99.90;;;;;;5056275;28;20446;-86
2021/06/15 07:01:16;;;;;;;6.97;6.27;;;20.90;99.90;;;;;;5057428;28;20471;-86
2021/06/15 07:03:43;;;;;;;7.23;6.50;;;21.00;99.90;;;;;;5055524;28;20485;-86
2021/06/15 07:06:09;;;;;;;9.30;6.80;;;21.00;99.90;;;;;;5046563;28;20449;-85
2021/06/15 07:08:36;;;;;;;12.37;7.13;;;21.10;99.90;;;;;;5057038;28;20434;-86
2021/06/15 07:11:04;;;;;;;12.77;6.70;;;20.90;99.90;;;;;;5057798;28;20442;-86
2021/06/15 07:13:31;;;;;;;11.53;7.17;;;20.90;99.90;;;;;;5053632;28;20500;-87
2021/06/15 07:15:58;;;;;;;5.63;5.13;;;21.00;99.90;;;;;;5042389;28;20455;-87
2021/06/15 07:18:24;;;;;;;7.80;6.47;;;21.10;99.90;;;;;;5042467;28;20434;-87
2021/06/15 07:20:51;;;;;;;21.80;8.83;;;21.20;99.90;;;;;;5042986;28;20477;-87
2021/06/15 07:23:18;;;;;;;9.47;7.00;;;21.30;99.90;;;;;;5041731;28;20481;-87
2021/06/15 07:25:45;;;;;;;10.63;6.80;;;22.90;99.90;;;;;;5040774;28;20493;-87
2021/06/15 07:28:13;;;;;;;12.30;8.17;;;21.30;99.90;;;;;;5039664;28;20450;-87
2021/06/15 07:30:39;;;;;;;14.10;7.47;;;21.30;99.90;;;;;;5040623;28;20439;-87
2021/06/15 07:33:06;;;;;;;8.40;7.57;;;21.30;99.90;;;;;;5039710;28;20439;-86
2021/06/15 07:35:33;;;;;;;9.33;6.67;;;21.20;99.90;;;;;;5039329;28;20471;-86
2021/06/15 07:37:59;;;;;;;12.77;6.87;;;21.30;99.90;;;;;;5042731;28;20483;-85
2021/06/15 07:40:26;;;;;;;14.40;10.00;;;21.50;99.90;;;;;;5039636;28;20442;-86
2021/06/15 07:42:54;;;;;;;18.90;8.33;;;21.60;99.90;;;;;;5039035;28;20822;-85
2021/06/15 07:45:24;;;;;;;12.53;6.90;;;21.70;99.90;;;;;;5039217;28;20462;-87
2021/06/15 07:47:50;;;;;;;12.30;7.43;;;21.60;99.90;;;;;;5040026;28;20450;-86
2021/06/15 07:50:18;;;;;;;16.27;10.93;;;21.70;99.90;;;;;;5040153;28;20450;-86
2021/06/15 07:52:45;;;;;;;15.67;7.93;;;21.70;99.90;;;;;;5040159;28;20953;-86
2021/06/15 07:55:14;;;;;;;13.87;8.30;;;21.60;99.90;;;;;;5042142;28;20455;-86
2021/06/15 07:57:42;;;;;;;9.40;7.23;;;21.70;99.90;;;;;;5040851;28;20470;-86
2021/06/15 08:00:10;;;;;;;25.03;8.23;;;21.80;99.90;;;;;;5041475;28;20451;-86
2021/06/15 08:02:39;;;;;;;10.93;8.47;;;21.90;99.90;;;;;;5044773;28;20447;-87
2021/06/15 08:05:06;;;;;;;14.03;8.47;;;21.90;99.90;;;;;;5042677;28;20560;-86
2021/06/15 08:07:33;;;;;;;14.70;8.07;;;22.00;99.90;;;;;;5049650;28;20447;-86
2021/06/15 08:09:59;;;;;;;18.10;8.13;;;22.00;99.90;;;;;;5052007;28;20432;-86
2021/06/15 08:12:26;;;;;;;9.80;7.17;;;22.10;99.90;;;;;;5050891;28;20451;-86
2021/06/15 08:14:53;;;;;;;10.10;7.73;;;22.80;99.90;;;;;;5045456;28;20878;-86
2021/06/15 08:17:19;;;;;;;9.43;7.60;;;22.50;99.90;;;;;;5055129;28;20446;-85
2021/06/15 08:19:47;;;;;;;16.43;7.70;;;22.40;99.90;;;;;;5057457;28;20846;-86
2021/06/15 08:22:14;;;;;;;16.27;8.30;;;22.20;99.90;;;;;;5057936;28;20443;-86
2021/06/15 08:24:41;;;;;;;13.47;8.90;;;22.20;99.90;;;;;;5057751;28;20489;-86
2021/06/15 08:27:08;;;;;;;9.87;8.20;;;22.10;99.90;;;;;;5057664;28;20511;-86
2021/06/15 08:29:35;;;;;;;14.73;8.53;;;22.30;99.90;;;;;;5057838;28;20446;-86
2021/06/15 08:32:02;;;;;;;10.63;8.40;;;22.20;99.90;;;;;;5056584;28;20447;-86
2021/06/15 08:34:31;;;;;;;8.63;7.73;;;22.10;99.90;;;;;;5057533;28;20434;-86
2021/06/15 08:36:59;;;;;;;11.73;8.00;;;22.30;99.90;;;;;;5054206;28;20470;-86
2021/06/15 08:39:26;;;;;;;14.50;9.47;;;22.50;99.90;;;;;;5047144;28;20502;-86
2021/06/15 08:41:53;;;;;;;11.20;8.13;;;22.50;99.90;;;;;;5043717;28;20442;-86
2021/06/15 08:44:19;;;;;;;11.17;9.27;;;22.40;99.90;;;;;;5043118;28;20573;-86
2021/06/15 08:46:46;;;;;;;12.60;9.13;;;22.30;99.90;;;;;;5043686;28;20460;-86
2021/06/15 08:49:13;;;;;;;10.60;7.43;;;22.30;99.90;;;;;;5044557;28;20453;-86
2021/06/15 08:51:41;;;;;;;13.10;7.87;;;22.50;99.90;;;;;;5044690;28;20442;-87
2021/06/15 08:54:15;;;;;;;13.10;7.33;;;22.50;99.90;;;;;;5044713;28;20438;-85
2021/06/15 08:56:43;;;;;;;8.93;7.90;;;22.80;99.90;;;;;;5043115;28;20466;-86
2021/06/15 08:59:19;;;;;;;9.47;8.47;;;22.90;99.90;;;;;;5044484;28;20459;-86
2021/06/15 09:01:46;;;;;;;8.03;6.73;;;22.80;99.90;;;;;;5045759;28;20510;-81
2021/06/15 09:04:13;;;;;;;10.13;7.37;;;22.90;99.90;;;;;;5042379;28;20483;-80
2021/06/15 09:06:39;;;;;;;16.13;8.90;;;23.00;99.90;;;;;;5043153;28;20464;-79
2021/06/15 09:09:06;;;;;;;9.97;7.17;;;22.80;99.90;;;;;;5044003;28;20859;-81
2021/06/15 09:11:51;;;;;;;9.40;7.90;;;22.90;99.90;;;;;;5042635;28;20450;-81
2021/06/15 09:14:19;;;;;;;10.23;8.37;;;22.80;99.90;;;;;;5043073;28;20431;-81
2021/06/15 09:16:46;;;;;;;8.87;8.00;;;22.80;99.90;;;;;;5043346;28;20514;-80
2021/06/15 09:19:18;;;;;;;8.93;8.03;;;23.00;99.90;;;;;;5041823;28;20872;-81
2021/06/15 09:21:45;;;;;;;9.23;7.80;;;22.70;99.90;;;;;;5043007;28;20458;-81
2021/06/15 09:24:15;;;;;;;9.17;6.90;;;22.90;99.90;;;;;;5041364;28;20478;-81
2021/06/15 09:27:05;;;;;;;8.00;7.20;;;22.90;99.90;;;;;;5042148;28;20474;-80
2021/06/15 09:29:48;;;;;;;9.83;7.83;;;22.90;99.90;;;;;;5041864;28;20424;-81
2021/06/15 09:32:19;;;;;;;12.50;7.93;;;22.70;99.90;;;;;;5042541;28;20840;-81
2021/06/15 09:34:54;;;;;;;13.10;7.63;;;22.70;99.90;;;;;;5041368;28;20427;-81
2021/06/15 09:37:29;;;;;;;7.77;6.97;;;22.80;99.90;;;;;;5041523;28;20440;-82
2021/06/15 09:39:56;;;;;;;9.57;6.70;;;22.90;99.90;;;;;;5042016;28;20455;-82
2021/06/15 09:42:24;;;;;;;8.60;6.53;;;22.90;99.90;;;;;;5041572;28;20445;-82
2021/06/15 09:44:51;;;;;;;5.93;5.43;;;23.00;99.90;;;;;;5042003;28;20520;-82
2021/06/15 09:47:22;;;;;;;5.80;5.27;;;23.10;99.90;;;;;;5040194;28;20451;-80
2021/06/15 09:49:48;;;;;;;8.23;6.73;;;23.20;99.90;;;;;;5040884;28;20443;-81
2021/06/15 09:52:18;;;;;;;6.93;6.33;;;23.20;99.90;;;;;;5039642;28;20443;-81
2021/06/15 09:54:47;;;;;;;8.00;6.87;;;23.30;99.90;;;;;;5040677;28;20474;-81
2021/06/15 09:57:21;;;;;;;11.60;7.03;;;23.30;99.90;;;;;;5039963;28;20808;-81
2021/06/15 10:00:16;;;;;;;6.90;5.63;;;23.20;99.90;;;;;;5041146;28;20433;-81
2021/06/15 10:02:53;;;;;;;6.90;5.63;;;23.00;99.90;;;;;;5046940;28;20509;-83
2021/06/15 10:05:31;;;;;;;8.50;5.43;;;23.20;99.90;;;;;;5046614;28;20482;-82
2021/06/15 10:08:00;;;;;;;6.40;5.80;;;23.00;99.90;;;;;;5045525;28;20525;-84
2021/06/15 10:10:29;;;;;;;8.70;5.60;;;23.00;99.90;;;;;;5043095;28;20452;-83
2021/06/15 10:12:56;;;;;;;7.90;7.10;;;22.90;99.90;;;;;;5040864;28;20471;-82
2021/06/15 10:15:27;;;;;;;7.67;6.20;;;22.80;99.90;;;;;;5040035;28;20459;-82
2021/06/15 10:17:54;;;;;;;8.47;5.77;;;22.80;99.90;;;;;;5040785;28;20424;-81
2021/06/15 10:20:22;;;;;;;8.43;7.17;;;22.80;99.90;;;;;;5041231;28;20478;-81
2021/06/15 10:22:50;;;;;;;6.83;6.13;;;22.70;99.90;;;;;;5041817;28;20447;-81
2021/06/15 10:25:18;;;;;;;9.23;7.00;;;22.70;99.90;;;;;;5042613;28;20494;-81
2021/06/15 10:27:45;;;;;;;8.10;6.80;;;22.60;99.90;;;;;;5044849;28;20443;-81
2021/06/15 10:30:14;;;;;;;7.20;6.40;;;22.60;99.90;;;;;;5045454;28;20451;-81
2021/06/15 10:32:56;;;;;;;9.00;7.00;;;22.30;99.90;;;;;;5043891;28;20446;-81
2021/06/15 10:35:35;;;;;;;12.87;8.17;;;22.20;99.90;;;;;;5042557;28;20469;-82
2021/06/15 10:38:02;;;;;;;9.07;6.63;;;22.10;99.90;;;;;;5041272;28;20435;-81
2021/06/15 10:40:45;;;;;;;7.30;6.70;;;22.20;99.90;;;;;;5040482;28;20474;-81
2021/06/15 10:43:26;;;;;;;11.57;7.50;;;22.30;99.90;;;;;;5043178;28;20432;-81
2021/06/15 10:45:54;;;;;;;7.67;6.93;;;22.50;99.90;;;;;;5043251;28;21010;-82
2021/06/15 10:48:39;;;;;;;10.63;6.80;;;22.50;99.90;;;;;;5048529;28;20871;-81
2021/06/15 10:51:21;;;;;;;12.23;7.30;;;22.80;99.90;;;;;;5045429;28;20446;-83
2021/06/15 10:53:48;;;;;;;10.73;8.10;;;22.80;99.90;;;;;;5043266;28;20431;-82
2021/06/15 10:56:17;;;;;;;9.30;6.10;;;22.70;99.90;;;;;;5041563;28;20836;-80
2021/06/15 10:59:08;;;;;;;8.00;7.30;;;22.60;99.90;;;;;;5040657;28;20451;-81
2021/06/15 11:01:36;;;;;;;8.60;7.47;;;22.80;99.90;;;;;;5040107;28;20480;-81
2021/06/15 11:04:06;;;;;;;9.50;8.47;;;22.80;99.90;;;;;;5040718;28;20474;-81
2021/06/15 11:06:49;;;;;;;12.67;7.97;;;22.60;99.90;;;;;;5041308;28;21038;-82
2021/06/15 11:09:19;;;;;;;9.73;7.00;;;22.70;99.90;;;;;;5042560;28;20432;-82
2021/06/15 11:11:47;;;;;;;10.57;7.97;;;22.50;99.90;;;;;;5044679;28;20448;-82
2021/06/15 11:14:19;;;;;;;8.27;7.43;;;22.70;99.90;;;;;;5043183;28;20781;-82
2021/06/15 11:16:46;;;;;;;11.00;8.40;;;22.80;99.90;;;;;;5042355;28;20477;-84
2021/06/15 11:19:37;;;;;;;9.33;7.80;;;22.70;99.90;;;;;;5044486;28;20504;-80
2021/06/15 11:22:10;;;;;;;10.50;7.13;;;22.60;99.90;;;;;;5044898;28;20506;-82
2021/06/15 11:24:47;;;;;;;9.37;8.27;;;22.60;99.90;;;;;;5045237;28;20471;-82
2021/06/15 11:27:19;;;;;;;11.37;8.37;;;22.50;99.90;;;;;;5053044;28;20431;-82
2021/06/15 11:29:46;;;;;;;10.53;8.70;;;22.30;99.90;;;;;;5053534;28;20422;-82
2021/06/15 11:32:21;;;;;;;7.90;7.20;;;22.20;99.90;;;;;;5052849;28;20493;-82
2021/06/15 11:35:25;;;;;;;8.77;7.63;;;22.20;99.90;;;;;;5054075;28;20503;-82
2021/06/15 11:37:53;;;;;;;8.77;7.87;;;22.10;99.90;;;;;;5052398;28;20446;-82
2021/06/15 11:40:29;;;;;;;9.67;8.63;;;22.20;99.90;;;;;;5051352;28;20446;-82
2021/06/15 11:43:17;;;;;;;12.13;6.93;;;22.10;99.90;;;;;;5050383;28;20493;-83
2021/06/15 11:45:45;;;;;;;8.63;7.93;;;22.30;99.90;;;;;;5047451;28;21013;-82
2021/06/15 11:48:22;;;;;;;8.70;7.80;;;22.60;99.90;;;;;;5045152;28;20505;-83
2021/06/15 11:50:51;;;;;;;10.67;8.57;;;22.50;99.90;;;;;;5042629;28;20813;-78
2021/06/15 11:53:21;;;;;;;8.50;7.60;;;22.50;99.90;;;;;;5041102;28;20448;-81
2021/06/15 11:55:50;;;;;;;9.00;7.50;;;22.60;99.90;;;;;;5043902;28;20490;-81
2021/06/15 11:58:19;;;;;;;9.57;8.57;;;22.40;99.90;;;;;;5045579;28;20450;-81
2021/06/15 12:00:50;;;;;;;11.77;8.13;;;22.40;99.90;;;;;;5045178;28;20454;-81
2021/06/15 12:03:18;;;;;;;9.97;8.97;;;22.40;99.90;;;;;;5045960;28;20477;-81
2021/06/15 12:05:46;;;;;;;8.53;7.83;;;22.60;99.90;;;;;;5044821;28;20487;-82
2021/06/15 12:08:13;;;;;;;8.43;7.63;;;22.80;99.90;;;;;;5045831;28;20522;-82
2021/06/15 12:10:42;;;;;;;9.43;8.23;;;22.90;99.90;;;;;;5044456;28;21021;-82
2021/06/15 12:13:12;;;;;;;13.40;8.00;;;22.90;99.90;;;;;;5046468;28;20438;-86
2021/06/15 12:15:48;;;;;;;8.17;7.40;;;23.00;99.90;;;;;;5046467;28;20544;-86
2021/06/15 12:18:50;;;;;;;8.67;7.93;;;23.10;99.90;;;;;;5045738;28;20435;-87
2021/06/15 12:21:19;;;;;;;10.60;7.87;;;23.20;99.90;;;;;;5046079;28;20459;-87
2021/06/15 12:23:48;;;;;;;10.60;8.20;;;23.00;99.90;;;;;;5049081;28;20542;-86
2021/06/15 12:26:19;;;;;;;10.40;9.00;;;23.00;99.90;;;;;;5055859;28;20525;-87
2021/06/15 12:28:49;;;;;;;10.60;8.37;;;23.10;99.90;;;;;;5059512;28;20440;-87
2021/06/15 12:31:18;;;;;;;8.97;8.10;;;23.10;99.90;;;;;;5059123;28;20458;-87
2021/06/15 12:33:47;;;;;;;10.10;8.10;;;23.30;99.90;;;;;;5058318;28;20545;-85
2021/06/15 12:36:15;;;;;;;17.03;11.00;;;23.30;99.90;;;;;;5054818;28;20519;-86
2021/06/15 12:38:44;;;;;;;9.40;8.30;;;23.30;99.90;;;;;;5053402;28;20444;-87
2021/06/15 12:41:13;;;;;;;9.20;8.30;;;23.20;99.90;;;;;;5052154;28;20505;-86
2021/06/15 12:43:43;;;;;;;7.63;6.90;;;23.20;99.90;;;;;;5058931;28;20424;-84
2021/06/15 12:46:15;;;;;;;8.87;7.97;;;23.50;99.90;;;;;;5060606;28;20504;-87
2021/06/15 12:48:51;;;;;;;14.57;9.67;;;23.40;99.90;;;;;;5060633;28;20452;-87
2021/06/15 12:51:19;;;;;;;8.50;7.73;;;23.50;99.90;;;;;;5060407;28;20437;-87
2021/06/15 12:53:46;;;;;;;9.33;8.47;;;23.60;99.90;;;;;;5059987;28;20421;-87
2021/06/15 12:56:22;;;;;;;8.90;7.33;;;23.60;99.90;;;;;;5060485;28;20460;-88
2021/06/15 12:58:52;;;;;;;10.97;8.40;;;23.40;99.90;;;;;;5060412;28;20417;-87